sensor_id;sensor_type;location;lat;lon;timestamp;P1;durP1;ratioP1;P2;durP2;ratioP2
32505;SDS011;18955;51.224;8.482;2023-06-22T00:00:48;11.27;;;7.50;;
32505;SDS011;18955;51.224;8.482;2023-06-22T00:03:15;9.35;;;7.85;;
32505;SDS011;18955;51.224;8.482;2023-06-22T00:05:45;9.30;;;7.53;;
32505;SDS011;18955;51.224;8.482;2023-06-22T00:08:12;9.73;;;7.68;;
32505;SDS011;18955;51.224;8.482;2023-06-22T00:10:39;8.43;;;7.47;;
32505;SDS011;18955;51.224;8.482;2023-06-22T00:13:06;7.97;;;6.95;;
32505;SDS011;18955;51.224;8.482;2023-06-22T00:15:33;10.13;;;7.90;;
32505;SDS011;18955;51.224;8.482;2023-06-22T00:17:59;13.25;;;8.73;;
32505;SDS011;18955;51.224;8.482;2023-06-22T00:20:26;11.00;;;8.45;;
32505;SDS011;18955;51.224;8.482;2023-06-22T00:22:56;9.95;;;8.93;;
32505;SDS011;18955;51.224;8.482;2023-06-22T00:25:23;8.98;;;8.07;;
32505;SDS011;18955;51.224;8.482;2023-06-22T00:27:49;9.30;;;7.78;;
32505;SDS011;18955;51.224;8.482;2023-06-22T00:30:16;8.98;;;7.63;;
32505;SDS011;18955;51.224;8.482;2023-06-22T00:32:43;11.75;;;9.00;;
32505;SDS011;18955;51.224;8.482;2023-06-22T00:35:11;9.20;;;8.13;;
32505;SDS011;18955;51.224;8.482;2023-06-22T00:37:38;9.18;;;8.35;;
32505;SDS011;18955;51.224;8.482;2023-06-22T00:40:08;8.18;;;7.38;;
32505;SDS011;18955;51.224;8.482;2023-06-22T00:42:40;9.05;;;8.13;;
32505;SDS011;18955;51.224;8.482;2023-06-22T00:45:07;9.52;;;8.20;;
32505;SDS011;18955;51.224;8.482;2023-06-22T00:47:34;10.68;;;8.93;;
32505;SDS011;18955;51.224;8.482;2023-06-22T00:50:03;10.27;;;8.38;;
32505;SDS011;18955;51.224;8.482;2023-06-22T00:52:32;11.90;;;9.60;;
32505;SDS011;18955;51.224;8.482;2023-06-22T00:55:02;10.65;;;9.50;;
32505;SDS011;18955;51.224;8.482;2023-06-22T00:57:29;11.18;;;9.63;;
32505;SDS011;18955;51.224;8.482;2023-06-22T00:59:56;10.05;;;8.45;;
32505;SDS011;18955;51.224;8.482;2023-06-22T01:02:22;8.90;;;8.00;;
32505;SDS011;18955;51.224;8.482;2023-06-22T01:04:48;10.13;;;9.20;;
32505;SDS011;18955;51.224;8.482;2023-06-22T01:12:32;12.70;;;8.73;;
32505;SDS011;18955;51.224;8.482;2023-06-22T01:17:49;12.65;;;9.32;;
32505;SDS011;18955;51.224;8.482;2023-06-22T01:20:18;14.00;;;8.75;;
32505;SDS011;18955;51.224;8.482;2023-06-22T01:25:43;9.27;;;8.38;;
32505;SDS011;18955;51.224;8.482;2023-06-22T01:28:29;10.05;;;9.00;;
32505;SDS011;18955;51.224;8.482;2023-06-22T01:30:56;13.18;;;10.27;;
32505;SDS011;18955;51.224;8.482;2023-06-22T01:33:33;9.57;;;8.27;;
32505;SDS011;18955;51.224;8.482;2023-06-22T01:36:01;11.63;;;10.05;;
32505;SDS011;18955;51.224;8.482;2023-06-22T01:38:28;11.90;;;10.50;;
32505;SDS011;18955;51.224;8.482;2023-06-22T01:40:57;10.18;;;9.27;;
32505;SDS011;18955;51.224;8.482;2023-06-22T01:43:25;10.57;;;9.48;;
32505;SDS011;18955;51.224;8.482;2023-06-22T01:45:53;9.38;;;8.48;;
32505;SDS011;18955;51.224;8.482;2023-06-22T01:48:20;9.93;;;8.82;;
32505;SDS011;18955;51.224;8.482;2023-06-22T01:50:47;10.35;;;9.32;;
32505;SDS011;18955;51.224;8.482;2023-06-22T01:55:40;12.02;;;10.52;;
32505;SDS011;18955;51.224;8.482;2023-06-22T01:58:06;12.43;;;10.02;;
32505;SDS011;18955;51.224;8.482;2023-06-22T02:00:33;13.20;;;10.93;;
32505;SDS011;18955;51.224;8.482;2023-06-22T02:03:11;13.00;;;10.80;;
32505;SDS011;18955;51.224;8.482;2023-06-22T02:05:46;12.13;;;10.90;;
32505;SDS011;18955;51.224;8.482;2023-06-22T02:08:22;10.30;;;9.15;;
32505;SDS011;18955;51.224;8.482;2023-06-22T02:10:51;11.90;;;10.63;;
32505;SDS011;18955;51.224;8.482;2023-06-22T02:13:20;12.50;;;10.48;;
32505;SDS011;18955;51.224;8.482;2023-06-22T02:15:47;12.25;;;10.45;;
32505;SDS011;18955;51.224;8.482;2023-06-22T02:20:39;13.45;;;11.15;;
32505;SDS011;18955;51.224;8.482;2023-06-22T02:23:06;12.63;;;11.00;;
32505;SDS011;18955;51.224;8.482;2023-06-22T02:25:35;11.02;;;9.93;;
32505;SDS011;18955;51.224;8.482;2023-06-22T02:28:01;13.10;;;10.57;;
32505;SDS011;18955;51.224;8.482;2023-06-22T02:30:28;13.00;;;10.43;;
32505;SDS011;18955;51.224;8.482;2023-06-22T02:32:54;13.35;;;10.30;;
32505;SDS011;18955;51.224;8.482;2023-06-22T02:35:27;11.77;;;10.68;;
32505;SDS011;18955;51.224;8.482;2023-06-22T02:37:58;11.95;;;10.85;;
32505;SDS011;18955;51.224;8.482;2023-06-22T02:40:25;12.25;;;11.05;;
32505;SDS011;18955;51.224;8.482;2023-06-22T02:42:52;14.55;;;10.73;;
32505;SDS011;18955;51.224;8.482;2023-06-22T02:45:18;13.90;;;12.05;;
32505;SDS011;18955;51.224;8.482;2023-06-22T02:47:45;16.38;;;12.98;;
32505;SDS011;18955;51.224;8.482;2023-06-22T02:50:13;14.05;;;12.35;;
32505;SDS011;18955;51.224;8.482;2023-06-22T02:55:06;12.68;;;11.38;;
32505;SDS011;18955;51.224;8.482;2023-06-22T02:57:35;11.60;;;10.35;;
32505;SDS011;18955;51.224;8.482;2023-06-22T03:00:05;11.30;;;10.20;;
32505;SDS011;18955;51.224;8.482;2023-06-22T03:02:44;14.45;;;10.50;;
32505;SDS011;18955;51.224;8.482;2023-06-22T03:05:15;14.32;;;11.07;;
32505;SDS011;18955;51.224;8.482;2023-06-22T03:07:44;17.02;;;10.40;;
32505;SDS011;18955;51.224;8.482;2023-06-22T03:10:11;12.05;;;10.80;;
32505;SDS011;18955;51.224;8.482;2023-06-22T03:12:38;11.98;;;10.57;;
32505;SDS011;18955;51.224;8.482;2023-06-22T03:15:06;12.45;;;11.13;;
32505;SDS011;18955;51.224;8.482;2023-06-22T03:17:37;16.08;;;11.52;;
32505;SDS011;18955;51.224;8.482;2023-06-22T03:20:05;16.15;;;11.60;;
32505;SDS011;18955;51.224;8.482;2023-06-22T03:22:40;14.35;;;11.75;;
32505;SDS011;18955;51.224;8.482;2023-06-22T03:25:08;12.98;;;11.60;;
32505;SDS011;18955;51.224;8.482;2023-06-22T03:27:44;12.73;;;11.40;;
32505;SDS011;18955;51.224;8.482;2023-06-22T03:30:11;13.43;;;11.45;;
32505;SDS011;18955;51.224;8.482;2023-06-22T03:32:37;13.90;;;12.32;;
32505;SDS011;18955;51.224;8.482;2023-06-22T03:35:05;14.20;;;12.48;;
32505;SDS011;18955;51.224;8.482;2023-06-22T03:37:34;13.48;;;10.95;;
32505;SDS011;18955;51.224;8.482;2023-06-22T03:40:00;15.32;;;12.82;;
32505;SDS011;18955;51.224;8.482;2023-06-22T03:42:28;13.88;;;12.57;;
32505;SDS011;18955;51.224;8.482;2023-06-22T03:44:55;18.05;;;12.27;;
32505;SDS011;18955;51.224;8.482;2023-06-22T03:47:21;16.35;;;12.82;;
32505;SDS011;18955;51.224;8.482;2023-06-22T03:49:48;12.25;;;10.75;;
32505;SDS011;18955;51.224;8.482;2023-06-22T03:52:14;16.35;;;11.40;;
32505;SDS011;18955;51.224;8.482;2023-06-22T03:54:40;14.27;;;12.68;;
32505;SDS011;18955;51.224;8.482;2023-06-22T03:57:06;14.77;;;12.23;;
32505;SDS011;18955;51.224;8.482;2023-06-22T03:59:32;13.95;;;11.50;;
32505;SDS011;18955;51.224;8.482;2023-06-22T04:04:25;15.70;;;11.57;;
32505;SDS011;18955;51.224;8.482;2023-06-22T04:06:51;12.40;;;10.93;;
32505;SDS011;18955;51.224;8.482;2023-06-22T04:09:18;13.15;;;11.85;;
32505;SDS011;18955;51.224;8.482;2023-06-22T04:11:44;13.15;;;11.70;;
32505;SDS011;18955;51.224;8.482;2023-06-22T04:14:10;13.50;;;12.20;;
32505;SDS011;18955;51.224;8.482;2023-06-22T04:16:36;14.75;;;11.20;;
32505;SDS011;18955;51.224;8.482;2023-06-22T04:19:02;15.50;;;13.00;;
32505;SDS011;18955;51.224;8.482;2023-06-22T04:21:28;24.17;;;12.82;;
32505;SDS011;18955;51.224;8.482;2023-06-22T04:23:55;20.15;;;12.80;;
32505;SDS011;18955;51.224;8.482;2023-06-22T04:26:21;18.58;;;8.73;;
32505;SDS011;18955;51.224;8.482;2023-06-22T04:28:47;22.13;;;13.55;;
32505;SDS011;18955;51.224;8.482;2023-06-22T04:31:19;24.23;;;12.60;;
32505;SDS011;18955;51.224;8.482;2023-06-22T04:33:45;16.92;;;9.55;;
32505;SDS011;18955;51.224;8.482;2023-06-22T04:36:11;22.58;;;11.63;;
32505;SDS011;18955;51.224;8.482;2023-06-22T04:38:40;20.20;;;12.52;;
32505;SDS011;18955;51.224;8.482;2023-06-22T04:41:07;47.92;;;13.48;;
32505;SDS011;18955;51.224;8.482;2023-06-22T04:43:48;25.73;;;11.52;;
32505;SDS011;18955;51.224;8.482;2023-06-22T04:46:19;30.58;;;12.85;;
32505;SDS011;18955;51.224;8.482;2023-06-22T04:48:45;27.23;;;12.70;;
32505;SDS011;18955;51.224;8.482;2023-06-22T04:51:11;27.00;;;11.27;;
32505;SDS011;18955;51.224;8.482;2023-06-22T04:53:38;32.08;;;11.88;;
32505;SDS011;18955;51.224;8.482;2023-06-22T04:56:07;27.20;;;12.48;;
32505;SDS011;18955;51.224;8.482;2023-06-22T04:58:34;28.58;;;12.32;;
32505;SDS011;18955;51.224;8.482;2023-06-22T05:01:00;24.67;;;11.73;;
32505;SDS011;18955;51.224;8.482;2023-06-22T05:03:26;16.55;;;8.88;;
32505;SDS011;18955;51.224;8.482;2023-06-22T05:05:52;27.00;;;12.35;;
32505;SDS011;18955;51.224;8.482;2023-06-22T05:10:45;22.38;;;11.65;;
32505;SDS011;18955;51.224;8.482;2023-06-22T05:13:11;31.60;;;12.68;;
32505;SDS011;18955;51.224;8.482;2023-06-22T05:15:37;36.30;;;12.02;;
32505;SDS011;18955;51.224;8.482;2023-06-22T05:18:05;31.15;;;13.63;;
32505;SDS011;18955;51.224;8.482;2023-06-22T05:20:32;44.40;;;12.35;;
32505;SDS011;18955;51.224;8.482;2023-06-22T05:23:01;36.67;;;13.15;;
32505;SDS011;18955;51.224;8.482;2023-06-22T05:25:27;43.83;;;13.00;;
32505;SDS011;18955;51.224;8.482;2023-06-22T05:27:55;44.60;;;13.98;;
32505;SDS011;18955;51.224;8.482;2023-06-22T05:30:21;56.33;;;15.25;;
32505;SDS011;18955;51.224;8.482;2023-06-22T05:32:48;36.95;;;13.52;;
32505;SDS011;18955;51.224;8.482;2023-06-22T05:35:14;26.83;;;12.13;;
32505;SDS011;18955;51.224;8.482;2023-06-22T05:37:40;19.67;;;11.75;;
32505;SDS011;18955;51.224;8.482;2023-06-22T05:40:06;37.78;;;13.80;;
32505;SDS011;18955;51.224;8.482;2023-06-22T05:42:33;22.88;;;12.80;;
32505;SDS011;18955;51.224;8.482;2023-06-22T05:44:59;22.38;;;9.68;;
32505;SDS011;18955;51.224;8.482;2023-06-22T05:47:25;26.77;;;12.55;;
32505;SDS011;18955;51.224;8.482;2023-06-22T05:49:52;25.45;;;11.15;;
32505;SDS011;18955;51.224;8.482;2023-06-22T05:52:18;25.42;;;11.40;;
32505;SDS011;18955;51.224;8.482;2023-06-22T05:54:44;19.85;;;12.52;;
32505;SDS011;18955;51.224;8.482;2023-06-22T05:57:10;16.25;;;8.43;;
32505;SDS011;18955;51.224;8.482;2023-06-22T05:59:36;25.95;;;12.43;;
32505;SDS011;18955;51.224;8.482;2023-06-22T06:02:03;25.83;;;13.23;;
32505;SDS011;18955;51.224;8.482;2023-06-22T06:04:30;21.30;;;11.23;;
32505;SDS011;18955;51.224;8.482;2023-06-22T06:06:56;24.50;;;12.85;;
32505;SDS011;18955;51.224;8.482;2023-06-22T06:09:22;25.00;;;13.57;;
32505;SDS011;18955;51.224;8.482;2023-06-22T06:11:49;22.83;;;12.80;;
32505;SDS011;18955;51.224;8.482;2023-06-22T06:14:15;20.67;;;12.98;;
32505;SDS011;18955;51.224;8.482;2023-06-22T06:16:42;20.42;;;13.57;;
32505;SDS011;18955;51.224;8.482;2023-06-22T06:19:08;18.88;;;13.77;;
32505;SDS011;18955;51.224;8.482;2023-06-22T06:21:35;25.67;;;13.90;;
32505;SDS011;18955;51.224;8.482;2023-06-22T06:24:01;17.08;;;13.30;;
32505;SDS011;18955;51.224;8.482;2023-06-22T06:26:27;18.08;;;14.05;;
32505;SDS011;18955;51.224;8.482;2023-06-22T06:28:55;21.98;;;14.20;;
32505;SDS011;18955;51.224;8.482;2023-06-22T06:31:23;18.17;;;13.63;;
32505;SDS011;18955;51.224;8.482;2023-06-22T06:33:49;19.20;;;14.30;;
32505;SDS011;18955;51.224;8.482;2023-06-22T06:36:15;18.58;;;15.07;;
32505;SDS011;18955;51.224;8.482;2023-06-22T06:38:42;18.35;;;14.32;;
32505;SDS011;18955;51.224;8.482;2023-06-22T06:41:08;19.98;;;16.80;;
32505;SDS011;18955;51.224;8.482;2023-06-22T06:43:34;20.25;;;16.40;;
32505;SDS011;18955;51.224;8.482;2023-06-22T06:46:00;19.05;;;16.67;;
32505;SDS011;18955;51.224;8.482;2023-06-22T06:48:28;20.00;;;16.23;;
32505;SDS011;18955;51.224;8.482;2023-06-22T06:50:54;15.18;;;11.20;;
32505;SDS011;18955;51.224;8.482;2023-06-22T06:53:21;15.10;;;12.20;;
32505;SDS011;18955;51.224;8.482;2023-06-22T06:55:47;14.43;;;11.07;;
32505;SDS011;18955;51.224;8.482;2023-06-22T06:58:13;14.68;;;12.52;;
32505;SDS011;18955;51.224;8.482;2023-06-22T07:00:40;15.55;;;11.27;;
32505;SDS011;18955;51.224;8.482;2023-06-22T07:03:06;13.20;;;11.40;;
32505;SDS011;18955;51.224;8.482;2023-06-22T07:05:33;17.17;;;13.38;;
32505;SDS011;18955;51.224;8.482;2023-06-22T07:07:59;19.45;;;15.38;;
32505;SDS011;18955;51.224;8.482;2023-06-22T07:10:25;16.25;;;14.50;;
32505;SDS011;18955;51.224;8.482;2023-06-22T07:12:51;19.70;;;15.23;;
32505;SDS011;18955;51.224;8.482;2023-06-22T07:15:18;17.55;;;15.63;;
32505;SDS011;18955;51.224;8.482;2023-06-22T07:17:44;17.10;;;14.80;;
32505;SDS011;18955;51.224;8.482;2023-06-22T07:20:10;16.77;;;15.00;;
32505;SDS011;18955;51.224;8.482;2023-06-22T07:22:43;17.13;;;15.15;;
32505;SDS011;18955;51.224;8.482;2023-06-22T07:25:12;15.32;;;12.55;;
32505;SDS011;18955;51.224;8.482;2023-06-22T07:28:04;14.90;;;13.05;;
32505;SDS011;18955;51.224;8.482;2023-06-22T07:30:30;17.15;;;14.05;;
32505;SDS011;18955;51.224;8.482;2023-06-22T07:32:58;15.75;;;14.00;;
32505;SDS011;18955;51.224;8.482;2023-06-22T07:35:29;18.23;;;14.27;;
32505;SDS011;18955;51.224;8.482;2023-06-22T07:37:56;18.58;;;14.45;;
32505;SDS011;18955;51.224;8.482;2023-06-22T07:40:22;18.75;;;15.82;;
32505;SDS011;18955;51.224;8.482;2023-06-22T07:42:48;13.30;;;10.55;;
32505;SDS011;18955;51.224;8.482;2023-06-22T07:45:17;14.25;;;12.57;;
32505;SDS011;18955;51.224;8.482;2023-06-22T07:47:43;15.10;;;12.35;;
32505;SDS011;18955;51.224;8.482;2023-06-22T07:50:10;17.27;;;12.68;;
32505;SDS011;18955;51.224;8.482;2023-06-22T07:52:36;20.13;;;14.00;;
32505;SDS011;18955;51.224;8.482;2023-06-22T07:55:02;22.52;;;13.48;;
32505;SDS011;18955;51.224;8.482;2023-06-22T07:57:29;13.57;;;11.95;;
32505;SDS011;18955;51.224;8.482;2023-06-22T07:59:59;16.52;;;12.60;;
32505;SDS011;18955;51.224;8.482;2023-06-22T08:02:26;13.02;;;11.57;;
32505;SDS011;18955;51.224;8.482;2023-06-22T08:04:52;16.35;;;12.82;;
32505;SDS011;18955;51.224;8.482;2023-06-22T08:07:19;18.63;;;13.73;;
32505;SDS011;18955;51.224;8.482;2023-06-22T08:09:46;13.00;;;11.57;;
32505;SDS011;18955;51.224;8.482;2023-06-22T08:12:14;18.85;;;11.40;;
32505;SDS011;18955;51.224;8.482;2023-06-22T08:17:08;15.27;;;12.30;;
32505;SDS011;18955;51.224;8.482;2023-06-22T08:19:34;17.90;;;11.68;;
32505;SDS011;18955;51.224;8.482;2023-06-22T08:22:00;16.38;;;11.23;;
32505;SDS011;18955;51.224;8.482;2023-06-22T08:24:26;16.40;;;11.63;;
32505;SDS011;18955;51.224;8.482;2023-06-22T08:26:56;15.65;;;11.32;;
32505;SDS011;18955;51.224;8.482;2023-06-22T08:29:22;16.38;;;11.20;;
32505;SDS011;18955;51.224;8.482;2023-06-22T08:31:48;17.58;;;11.65;;
32505;SDS011;18955;51.224;8.482;2023-06-22T08:34:14;12.75;;;11.45;;
32505;SDS011;18955;51.224;8.482;2023-06-22T08:36:40;13.40;;;10.15;;
32505;SDS011;18955;51.224;8.482;2023-06-22T08:39:08;13.02;;;11.27;;
32505;SDS011;18955;51.224;8.482;2023-06-22T08:41:35;15.18;;;12.13;;
32505;SDS011;18955;51.224;8.482;2023-06-22T08:44:01;13.80;;;11.80;;
32505;SDS011;18955;51.224;8.482;2023-06-22T08:46:28;14.10;;;11.88;;
32505;SDS011;18955;51.224;8.482;2023-06-22T08:48:59;17.75;;;12.02;;
32505;SDS011;18955;51.224;8.482;2023-06-22T08:51:25;16.02;;;12.40;;
32505;SDS011;18955;51.224;8.482;2023-06-22T08:53:51;30.33;;;12.55;;
32505;SDS011;18955;51.224;8.482;2023-06-22T08:56:18;14.63;;;11.38;;
32505;SDS011;18955;51.224;8.482;2023-06-22T08:58:44;13.55;;;11.18;;
32505;SDS011;18955;51.224;8.482;2023-06-22T09:01:10;13.05;;;10.43;;
32505;SDS011;18955;51.224;8.482;2023-06-22T09:03:37;14.43;;;11.77;;
32505;SDS011;18955;51.224;8.482;2023-06-22T09:06:03;15.07;;;10.55;;
32505;SDS011;18955;51.224;8.482;2023-06-22T09:08:29;14.30;;;10.63;;
32505;SDS011;18955;51.224;8.482;2023-06-22T09:10:56;12.82;;;10.25;;
32505;SDS011;18955;51.224;8.482;2023-06-22T09:13:22;15.07;;;10.10;;
32505;SDS011;18955;51.224;8.482;2023-06-22T09:15:48;12.35;;;9.48;;
32505;SDS011;18955;51.224;8.482;2023-06-22T09:18:14;11.50;;;9.57;;
32505;SDS011;18955;51.224;8.482;2023-06-22T09:20:40;11.02;;;9.85;;
32505;SDS011;18955;51.224;8.482;2023-06-22T09:23:07;12.60;;;9.90;;
32505;SDS011;18955;51.224;8.482;2023-06-22T09:25:33;14.90;;;10.25;;
32505;SDS011;18955;51.224;8.482;2023-06-22T09:27:59;16.80;;;10.48;;
32505;SDS011;18955;51.224;8.482;2023-06-22T09:30:25;14.38;;;10.98;;
32505;SDS011;18955;51.224;8.482;2023-06-22T09:32:52;19.15;;;10.70;;
32505;SDS011;18955;51.224;8.482;2023-06-22T09:35:18;10.90;;;9.75;;
32505;SDS011;18955;51.224;8.482;2023-06-22T09:37:45;13.68;;;10.20;;
32505;SDS011;18955;51.224;8.482;2023-06-22T09:40:11;14.57;;;10.40;;
32505;SDS011;18955;51.224;8.482;2023-06-22T09:42:38;12.73;;;10.27;;
32505;SDS011;18955;51.224;8.482;2023-06-22T09:45:05;13.50;;;9.80;;
32505;SDS011;18955;51.224;8.482;2023-06-22T09:47:31;11.60;;;10.38;;
32505;SDS011;18955;51.224;8.482;2023-06-22T09:49:58;13.80;;;9.88;;
32505;SDS011;18955;51.224;8.482;2023-06-22T09:52:25;13.05;;;9.90;;
32505;SDS011;18955;51.224;8.482;2023-06-22T09:54:51;12.93;;;10.52;;
32505;SDS011;18955;51.224;8.482;2023-06-22T09:57:18;11.25;;;8.18;;
32505;SDS011;18955;51.224;8.482;2023-06-22T09:59:44;14.20;;;10.52;;
32505;SDS011;18955;51.224;8.482;2023-06-22T10:02:10;14.40;;;10.63;;
32505;SDS011;18955;51.224;8.482;2023-06-22T10:04:36;15.52;;;10.15;;
32505;SDS011;18955;51.224;8.482;2023-06-22T10:07:02;15.73;;;11.80;;
32505;SDS011;18955;51.224;8.482;2023-06-22T10:09:29;15.02;;;11.15;;
32505;SDS011;18955;51.224;8.482;2023-06-22T10:11:55;14.38;;;11.77;;
32505;SDS011;18955;51.224;8.482;2023-06-22T10:14:21;22.58;;;12.00;;
32505;SDS011;18955;51.224;8.482;2023-06-22T10:16:48;11.48;;;8.73;;
32505;SDS011;18955;51.224;8.482;2023-06-22T10:19:14;13.82;;;10.75;;
32505;SDS011;18955;51.224;8.482;2023-06-22T10:21:40;13.90;;;12.27;;
32505;SDS011;18955;51.224;8.482;2023-06-22T10:24:06;18.15;;;10.98;;
32505;SDS011;18955;51.224;8.482;2023-06-22T10:26:33;17.70;;;11.95;;
32505;SDS011;18955;51.224;8.482;2023-06-22T10:31:26;35.03;;;12.88;;
32505;SDS011;18955;51.224;8.482;2023-06-22T10:33:53;22.42;;;12.10;;
32505;SDS011;18955;51.224;8.482;2023-06-22T10:36:20;12.43;;;11.00;;
32505;SDS011;18955;51.224;8.482;2023-06-22T10:38:47;17.30;;;12.25;;
32505;SDS011;18955;51.224;8.482;2023-06-22T10:41:14;16.48;;;11.52;;
32505;SDS011;18955;51.224;8.482;2023-06-22T10:43:41;17.77;;;11.50;;
32505;SDS011;18955;51.224;8.482;2023-06-22T10:46:07;24.00;;;11.77;;
32505;SDS011;18955;51.224;8.482;2023-06-22T10:48:35;19.27;;;11.52;;
32505;SDS011;18955;51.224;8.482;2023-06-22T10:51:01;17.08;;;11.52;;
32505;SDS011;18955;51.224;8.482;2023-06-22T10:53:27;10.68;;;8.00;;
32505;SDS011;18955;51.224;8.482;2023-06-22T10:55:53;10.73;;;9.65;;
32505;SDS011;18955;51.224;8.482;2023-06-22T10:58:20;14.55;;;10.85;;
32505;SDS011;18955;51.224;8.482;2023-06-22T11:00:46;15.48;;;11.45;;
32505;SDS011;18955;51.224;8.482;2023-06-22T11:03:12;15.07;;;10.57;;
32505;SDS011;18955;51.224;8.482;2023-06-22T11:05:39;22.77;;;11.48;;
32505;SDS011;18955;51.224;8.482;2023-06-22T11:08:07;18.33;;;10.90;;
32505;SDS011;18955;51.224;8.482;2023-06-22T11:10:33;12.70;;;10.13;;
32505;SDS011;18955;51.224;8.482;2023-06-22T11:12:59;16.98;;;12.45;;
32505;SDS011;18955;51.224;8.482;2023-06-22T11:15:26;13.27;;;10.73;;
32505;SDS011;18955;51.224;8.482;2023-06-22T11:17:52;14.88;;;11.50;;
32505;SDS011;18955;51.224;8.482;2023-06-22T11:20:18;14.88;;;11.82;;
32505;SDS011;18955;51.224;8.482;2023-06-22T11:25:11;13.77;;;11.82;;
32505;SDS011;18955;51.224;8.482;2023-06-22T11:27:37;25.40;;;12.02;;
32505;SDS011;18955;51.224;8.482;2023-06-22T11:30:04;25.83;;;11.85;;
32505;SDS011;18955;51.224;8.482;2023-06-22T11:32:30;22.15;;;11.65;;
32505;SDS011;18955;51.224;8.482;2023-06-22T11:34:57;14.95;;;10.43;;
32505;SDS011;18955;51.224;8.482;2023-06-22T11:37:23;17.08;;;11.02;;
32505;SDS011;18955;51.224;8.482;2023-06-22T11:39:49;17.20;;;10.80;;
32505;SDS011;18955;51.224;8.482;2023-06-22T11:42:15;16.55;;;11.35;;
32505;SDS011;18955;51.224;8.482;2023-06-22T11:44:42;16.10;;;11.13;;
32505;SDS011;18955;51.224;8.482;2023-06-22T11:47:09;16.58;;;10.80;;
32505;SDS011;18955;51.224;8.482;2023-06-22T11:49:35;14.25;;;11.38;;
32505;SDS011;18955;51.224;8.482;2023-06-22T11:52:01;13.60;;;10.85;;
32505;SDS011;18955;51.224;8.482;2023-06-22T11:54:28;17.20;;;10.50;;
32505;SDS011;18955;51.224;8.482;2023-06-22T11:56:54;13.90;;;10.93;;
32505;SDS011;18955;51.224;8.482;2023-06-22T11:59:20;15.68;;;10.18;;
32505;SDS011;18955;51.224;8.482;2023-06-22T12:01:47;13.70;;;10.73;;
32505;SDS011;18955;51.224;8.482;2023-06-22T12:04:16;15.77;;;10.15;;
32505;SDS011;18955;51.224;8.482;2023-06-22T12:06:42;16.63;;;10.63;;
32505;SDS011;18955;51.224;8.482;2023-06-22T12:09:09;16.15;;;10.98;;
32505;SDS011;18955;51.224;8.482;2023-06-22T12:11:36;16.95;;;11.27;;
32505;SDS011;18955;51.224;8.482;2023-06-22T12:14:02;19.55;;;11.63;;
32505;SDS011;18955;51.224;8.482;2023-06-22T12:16:28;19.50;;;12.07;;
32505;SDS011;18955;51.224;8.482;2023-06-22T12:18:54;14.82;;;11.48;;
32505;SDS011;18955;51.224;8.482;2023-06-22T12:21:21;17.80;;;11.52;;
32505;SDS011;18955;51.224;8.482;2023-06-22T12:23:47;15.73;;;11.70;;
32505;SDS011;18955;51.224;8.482;2023-06-22T12:26:13;19.75;;;12.40;;
32505;SDS011;18955;51.224;8.482;2023-06-22T12:28:40;14.90;;;11.68;;
32505;SDS011;18955;51.224;8.482;2023-06-22T12:31:06;14.40;;;11.88;;
32505;SDS011;18955;51.224;8.482;2023-06-22T12:33:32;17.08;;;12.80;;
32505;SDS011;18955;51.224;8.482;2023-06-22T12:35:58;14.02;;;12.00;;
32505;SDS011;18955;51.224;8.482;2023-06-22T12:38:24;16.38;;;12.98;;
32505;SDS011;18955;51.224;8.482;2023-06-22T12:40:51;14.13;;;11.88;;
32505;SDS011;18955;51.224;8.482;2023-06-22T12:43:18;18.23;;;13.43;;
32505;SDS011;18955;51.224;8.482;2023-06-22T12:45:44;19.05;;;12.77;;
32505;SDS011;18955;51.224;8.482;2023-06-22T12:48:10;16.23;;;12.27;;
32505;SDS011;18955;51.224;8.482;2023-06-22T12:50:36;17.23;;;13.52;;
32505;SDS011;18955;51.224;8.482;2023-06-22T12:53:02;17.83;;;12.32;;
32505;SDS011;18955;51.224;8.482;2023-06-22T12:55:29;12.60;;;11.23;;
32505;SDS011;18955;51.224;8.482;2023-06-22T12:57:56;15.13;;;13.40;;
32505;SDS011;18955;51.224;8.482;2023-06-22T13:00:22;16.15;;;12.93;;
32505;SDS011;18955;51.224;8.482;2023-06-22T13:02:48;23.40;;;13.32;;
32505;SDS011;18955;51.224;8.482;2023-06-22T13:05:14;16.25;;;12.57;;
32505;SDS011;18955;51.224;8.482;2023-06-22T13:07:41;26.63;;;14.00;;
32505;SDS011;18955;51.224;8.482;2023-06-22T13:10:08;16.08;;;13.45;;
32505;SDS011;18955;51.224;8.482;2023-06-22T13:12:34;16.00;;;13.30;;
32505;SDS011;18955;51.224;8.482;2023-06-22T13:15:00;18.05;;;14.43;;
32505;SDS011;18955;51.224;8.482;2023-06-22T13:17:28;20.05;;;15.15;;
32505;SDS011;18955;51.224;8.482;2023-06-22T13:19:55;22.77;;;14.27;;
32505;SDS011;18955;51.224;8.482;2023-06-22T13:22:28;23.15;;;14.20;;
32505;SDS011;18955;51.224;8.482;2023-06-22T13:25:00;38.60;;;16.08;;
32505;SDS011;18955;51.224;8.482;2023-06-22T13:27:26;26.63;;;16.63;;
32505;SDS011;18955;51.224;8.482;2023-06-22T13:29:52;25.40;;;13.93;;
32505;SDS011;18955;51.224;8.482;2023-06-22T13:32:18;21.95;;;16.42;;
32505;SDS011;18955;51.224;8.482;2023-06-22T13:34:45;18.90;;;14.80;;
32505;SDS011;18955;51.224;8.482;2023-06-22T13:37:11;19.15;;;15.25;;
32505;SDS011;18955;51.224;8.482;2023-06-22T13:39:37;20.73;;;16.67;;
32505;SDS011;18955;51.224;8.482;2023-06-22T13:42:03;21.23;;;15.25;;
32505;SDS011;18955;51.224;8.482;2023-06-22T13:44:30;19.15;;;16.27;;
32505;SDS011;18955;51.224;8.482;2023-06-22T13:46:56;24.92;;;14.77;;
32505;SDS011;18955;51.224;8.482;2023-06-22T13:49:23;22.60;;;15.88;;
32505;SDS011;18955;51.224;8.482;2023-06-22T13:51:49;23.00;;;14.05;;
32505;SDS011;18955;51.224;8.482;2023-06-22T13:56:42;17.73;;;14.60;;
32505;SDS011;18955;51.224;8.482;2023-06-22T13:59:08;18.30;;;14.82;;
32505;SDS011;18955;51.224;8.482;2023-06-22T14:01:37;18.00;;;14.60;;
32505;SDS011;18955;51.224;8.482;2023-06-22T14:04:05;15.77;;;14.18;;
32505;SDS011;18955;51.224;8.482;2023-06-22T14:06:31;16.08;;;13.75;;
32505;SDS011;18955;51.224;8.482;2023-06-22T14:08:57;17.92;;;16.10;;
32505;SDS011;18955;51.224;8.482;2023-06-22T14:11:24;15.10;;;12.18;;
32505;SDS011;18955;51.224;8.482;2023-06-22T14:13:51;21.40;;;18.27;;
32505;SDS011;18955;51.224;8.482;2023-06-22T14:16:17;33.13;;;20.05;;
32505;SDS011;18955;51.224;8.482;2023-06-22T14:18:44;18.05;;;15.90;;
32505;SDS011;18955;51.224;8.482;2023-06-22T14:21:11;27.45;;;19.92;;
32505;SDS011;18955;51.224;8.482;2023-06-22T14:23:37;29.55;;;22.88;;
32505;SDS011;18955;51.224;8.482;2023-06-22T14:26:03;28.70;;;23.30;;
32505;SDS011;18955;51.224;8.482;2023-06-22T14:28:29;26.67;;;20.98;;
32505;SDS011;18955;51.224;8.482;2023-06-22T14:30:56;24.00;;;20.83;;
32505;SDS011;18955;51.224;8.482;2023-06-22T14:33:22;19.83;;;17.65;;
32505;SDS011;18955;51.224;8.482;2023-06-22T14:35:48;27.77;;;16.52;;
32505;SDS011;18955;51.224;8.482;2023-06-22T14:38:15;24.35;;;17.20;;
32505;SDS011;18955;51.224;8.482;2023-06-22T14:40:41;18.30;;;15.15;;
32505;SDS011;18955;51.224;8.482;2023-06-22T14:43:07;16.70;;;13.82;;
32505;SDS011;18955;51.224;8.482;2023-06-22T14:45:33;25.70;;;15.15;;
32505;SDS011;18955;51.224;8.482;2023-06-22T14:47:59;20.85;;;14.48;;
32505;SDS011;18955;51.224;8.482;2023-06-22T14:50:25;20.58;;;13.82;;
32505;SDS011;18955;51.224;8.482;2023-06-22T14:52:52;20.30;;;13.90;;
32505;SDS011;18955;51.224;8.482;2023-06-22T14:55:18;19.77;;;13.93;;